sensor_id;sensor_type;location;lat;lon;timestamp;temperature;humidity
71436;SHT31;59251;51.326;12.370;2022-07-01T00:00:00;23.26;75.86
71436;SHT31;59251;51.326;12.370;2022-07-01T00:02:25;23.26;75.84
71436;SHT31;59251;51.326;12.370;2022-07-01T00:04:51;23.20;75.90
71436;SHT31;59251;51.326;12.370;2022-07-01T00:07:17;23.26;75.83
71436;SHT31;59251;51.326;12.370;2022-07-01T00:09:42;23.23;75.91
71436;SHT31;59251;51.326;12.370;2022-07-01T00:12:08;23.17;76.05
71436;SHT31;59251;51.326;12.370;2022-07-01T00:14:34;23.17;76.00
71436;SHT31;59251;51.326;12.370;2022-07-01T00:16:59;23.12;76.17
71436;SHT31;59251;51.326;12.370;2022-07-01T00:19:25;23.09;76.32
71436;SHT31;59251;51.326;12.370;2022-07-01T00:21:51;23.03;76.44
71436;SHT31;59251;51.326;12.370;2022-07-01T00:24:17;22.98;76.62
71436;SHT31;59251;51.326;12.370;2022-07-01T00:26:42;23.05;76.53
71436;SHT31;59251;51.326;12.370;2022-07-01T00:29:08;22.92;76.78
71436;SHT31;59251;51.326;12.370;2022-07-01T00:31:33;22.99;76.69
71436;SHT31;59251;51.326;12.370;2022-07-01T00:33:58;22.94;76.77
71436;SHT31;59251;51.326;12.370;2022-07-01T00:36:24;22.91;76.91
71436;SHT31;59251;51.326;12.370;2022-07-01T00:38:50;22.85;76.98
71436;SHT31;59251;51.326;12.370;2022-07-01T00:41:15;22.84;77.15
71436;SHT31;59251;51.326;12.370;2022-07-01T00:43:41;22.75;77.33
71436;SHT31;59251;51.326;12.370;2022-07-01T00:46:07;22.72;77.43
71436;SHT31;59251;51.326;12.370;2022-07-01T00:48:34;22.72;77.42
71436;SHT31;59251;51.326;12.370;2022-07-01T00:51:02;22.68;77.56
71436;SHT31;59251;51.326;12.370;2022-07-01T00:53:28;22.66;77.67
71436;SHT31;59251;51.326;12.370;2022-07-01T00:55:54;22.62;77.75
71436;SHT31;59251;51.326;12.370;2022-07-01T00:58:20;22.61;77.76
71436;SHT31;59251;51.326;12.370;2022-07-01T01:00:45;22.59;77.70
71436;SHT31;59251;51.326;12.370;2022-07-01T01:03:10;22.64;77.49
71436;SHT31;59251;51.326;12.370;2022-07-01T01:05:37;22.57;77.73
71436;SHT31;59251;51.326;12.370;2022-07-01T01:08:04;22.61;77.58
71436;SHT31;59251;51.326;12.370;2022-07-01T01:10:30;22.59;77.59
71436;SHT31;59251;51.326;12.370;2022-07-01T01:12:57;22.61;77.58
71436;SHT31;59251;51.326;12.370;2022-07-01T01:15:23;22.62;77.47
71436;SHT31;59251;51.326;12.370;2022-07-01T01:17:49;22.52;77.74
71436;SHT31;59251;51.326;12.370;2022-07-01T01:20:18;22.49;77.88
71436;SHT31;59251;51.326;12.370;2022-07-01T01:22:44;22.43;78.05
71436;SHT31;59251;51.326;12.370;2022-07-01T01:25:10;22.44;78.09
71436;SHT31;59251;51.326;12.370;2022-07-01T01:27:36;22.44;78.06
71436;SHT31;59251;51.326;12.370;2022-07-01T01:30:04;22.38;78.18
71436;SHT31;59251;51.326;12.370;2022-07-01T01:32:30;22.41;78.19
71436;SHT31;59251;51.326;12.370;2022-07-01T01:34:56;22.36;78.28
71436;SHT31;59251;51.326;12.370;2022-07-01T01:37:21;22.36;78.42
71436;SHT31;59251;51.326;12.370;2022-07-01T01:39:47;22.33;78.43
71436;SHT31;59251;51.326;12.370;2022-07-01T01:42:12;22.22;79.00
71436;SHT31;59251;51.326;12.370;2022-07-01T01:44:38;22.28;78.78
71436;SHT31;59251;51.326;12.370;2022-07-01T01:47:04;22.30;78.66
71436;SHT31;59251;51.326;12.370;2022-07-01T01:49:29;22.33;78.58
71436;SHT31;59251;51.326;12.370;2022-07-01T01:51:56;22.38;78.33
71436;SHT31;59251;51.326;12.370;2022-07-01T01:54:23;22.47;78.12
71436;SHT31;59251;51.326;12.370;2022-07-01T01:56:48;22.43;78.01
71436;SHT31;59251;51.326;12.370;2022-07-01T01:59:14;22.49;77.92
71436;SHT31;59251;51.326;12.370;2022-07-01T02:01:39;22.43;78.07
71436;SHT31;59251;51.326;12.370;2022-07-01T02:04:05;22.49;77.98
71436;SHT31;59251;51.326;12.370;2022-07-01T02:06:30;22.45;78.22
71436;SHT31;59251;51.326;12.370;2022-07-01T02:08:55;22.49;78.12
71436;SHT31;59251;51.326;12.370;2022-07-01T02:11:21;22.43;78.18
71436;SHT31;59251;51.326;12.370;2022-07-01T02:13:46;22.44;78.18
71436;SHT31;59251;51.326;12.370;2022-07-01T02:16:12;22.44;78.27
71436;SHT31;59251;51.326;12.370;2022-07-01T02:18:38;22.49;78.09
71436;SHT31;59251;51.326;12.370;2022-07-01T02:21:03;22.48;77.98
71436;SHT31;59251;51.326;12.370;2022-07-01T02:23:28;22.49;77.95
71436;SHT31;59251;51.326;12.370;2022-07-01T02:25:57;22.61;77.52
71436;SHT31;59251;51.326;12.370;2022-07-01T02:28:22;22.57;77.68
71436;SHT31;59251;51.326;12.370;2022-07-01T02:30:47;22.57;77.75
71436;SHT31;59251;51.326;12.370;2022-07-01T02:33:13;22.49;77.99
71436;SHT31;59251;51.326;12.370;2022-07-01T02:35:40;22.47;78.30
71436;SHT31;59251;51.326;12.370;2022-07-01T02:38:07;22.38;78.45
71436;SHT31;59251;51.326;12.370;2022-07-01T02:40:35;22.41;78.43
71436;SHT31;59251;51.326;12.370;2022-07-01T02:43:06;22.40;78.47
71436;SHT31;59251;51.326;12.370;2022-07-01T02:45:31;22.34;78.83
71436;SHT31;59251;51.326;12.370;2022-07-01T02:47:56;22.34;78.75
71436;SHT31;59251;51.326;12.370;2022-07-01T02:50:22;22.33;78.86
71436;SHT31;59251;51.326;12.370;2022-07-01T02:52:47;22.31;79.22
71436;SHT31;59251;51.326;12.370;2022-07-01T02:55:13;22.31;79.34
71436;SHT31;59251;51.326;12.370;2022-07-01T02:57:40;22.25;79.54
71436;SHT31;59251;51.326;12.370;2022-07-01T03:00:08;22.28;79.53
71436;SHT31;59251;51.326;12.370;2022-07-01T03:02:34;22.34;79.01
71436;SHT31;59251;51.326;12.370;2022-07-01T03:05:00;22.40;78.35
71436;SHT31;59251;51.326;12.370;2022-07-01T03:07:26;22.33;77.81
71436;SHT31;59251;51.326;12.370;2022-07-01T03:09:51;22.33;77.38
71436;SHT31;59251;51.326;12.370;2022-07-01T03:12:17;22.22;77.18
71436;SHT31;59251;51.326;12.370;2022-07-01T03:14:59;22.13;77.09
71436;SHT31;59251;51.326;12.370;2022-07-01T03:17:26;22.10;76.57
71436;SHT31;59251;51.326;12.370;2022-07-01T03:19:52;22.03;76.56
71436;SHT31;59251;51.326;12.370;2022-07-01T03:22:22;21.96;76.35
71436;SHT31;59251;51.326;12.370;2022-07-01T03:24:49;21.96;76.01
71436;SHT31;59251;51.326;12.370;2022-07-01T03:27:15;22.00;75.79
71436;SHT31;59251;51.326;12.370;2022-07-01T03:29:41;21.94;75.85
71436;SHT31;59251;51.326;12.370;2022-07-01T03:32:07;21.99;75.84
71436;SHT31;59251;51.326;12.370;2022-07-01T03:34:35;21.80;76.96
71436;SHT31;59251;51.326;12.370;2022-07-01T03:37:01;21.92;77.06
71436;SHT31;59251;51.326;12.370;2022-07-01T03:39:26;21.85;77.56
71436;SHT31;59251;51.326;12.370;2022-07-01T03:41:52;21.75;78.19
71436;SHT31;59251;51.326;12.370;2022-07-01T03:44:17;21.93;77.76
71436;SHT31;59251;51.326;12.370;2022-07-01T03:46:42;21.75;78.70
71436;SHT31;59251;51.326;12.370;2022-07-01T03:49:08;21.86;78.46
71436;SHT31;59251;51.326;12.370;2022-07-01T03:51:33;21.83;78.99
71436;SHT31;59251;51.326;12.370;2022-07-01T03:53:59;21.67;79.53
71436;SHT31;59251;51.326;12.370;2022-07-01T03:56:43;21.79;79.37
71436;SHT31;59251;51.326;12.370;2022-07-01T03:59:08;21.93;79.11
71436;SHT31;59251;51.326;12.370;2022-07-01T04:01:34;21.85;79.68
71436;SHT31;59251;51.326;12.370;2022-07-01T04:03:59;22.03;79.39
71436;SHT31;59251;51.326;12.370;2022-07-01T04:06:25;22.00;79.61
71436;SHT31;59251;51.326;12.370;2022-07-01T04:08:50;22.20;78.68
71436;SHT31;59251;51.326;12.370;2022-07-01T04:11:16;22.01;79.10
71436;SHT31;59251;51.326;12.370;2022-07-01T04:13:41;22.22;78.51
71436;SHT31;59251;51.326;12.370;2022-07-01T04:16:12;22.01;78.84
71436;SHT31;59251;51.326;12.370;2022-07-01T04:18:38;22.04;78.64
71436;SHT31;59251;51.326;12.370;2022-07-01T04:21:03;22.16;77.96
71436;SHT31;59251;51.326;12.370;2022-07-01T04:23:47;22.09;78.48
71436;SHT31;59251;51.326;12.370;2022-07-01T04:26:12;22.16;77.96
71436;SHT31;59251;51.326;12.370;2022-07-01T04:28:38;22.20;77.87
71436;SHT31;59251;51.326;12.370;2022-07-01T04:31:03;22.24;77.90
71436;SHT31;59251;51.326;12.370;2022-07-01T04:33:29;22.09;78.45
71436;SHT31;59251;51.326;12.370;2022-07-01T04:35:54;21.96;78.77
71436;SHT31;59251;51.326;12.370;2022-07-01T04:38:19;21.88;79.24
71436;SHT31;59251;51.326;12.370;2022-07-01T04:40:45;21.80;78.78
71436;SHT31;59251;51.326;12.370;2022-07-01T04:43:30;21.76;79.12
71436;SHT31;59251;51.326;12.370;2022-07-01T04:45:56;21.62;79.57
71436;SHT31;59251;51.326;12.370;2022-07-01T04:48:21;21.72;78.90
71436;SHT31;59251;51.326;12.370;2022-07-01T04:50:47;21.51;79.21
71436;SHT31;59251;51.326;12.370;2022-07-01T04:53:13;21.43;79.53
71436;SHT31;59251;51.326;12.370;2022-07-01T04:55:39;21.37;79.80
71436;SHT31;59251;51.326;12.370;2022-07-01T04:58:04;21.05;80.41
71436;SHT31;59251;51.326;12.370;2022-07-01T05:00:30;20.79;80.83
71436;SHT31;59251;51.326;12.370;2022-07-01T05:02:55;20.97;80.25
71436;SHT31;59251;51.326;12.370;2022-07-01T05:05:21;20.94;80.37
71436;SHT31;59251;51.326;12.370;2022-07-01T05:07:46;20.87;80.26
71436;SHT31;59251;51.326;12.370;2022-07-01T05:10:12;20.88;80.21
71436;SHT31;59251;51.326;12.370;2022-07-01T05:12:38;20.72;80.93
71436;SHT31;59251;51.326;12.370;2022-07-01T05:15:03;20.21;88.06
71436;SHT31;59251;51.326;12.370;2022-07-01T05:17:29;19.57;90.49
71436;SHT31;59251;51.326;12.370;2022-07-01T05:20:20;19.30;91.39
71436;SHT31;59251;51.326;12.370;2022-07-01T05:23:05;19.19;90.43
71436;SHT31;59251;51.326;12.370;2022-07-01T05:25:30;19.09;90.70
71436;SHT31;59251;51.326;12.370;2022-07-01T05:27:55;19.11;92.21
71436;SHT31;59251;51.326;12.370;2022-07-01T05:30:21;19.05;90.88
71436;SHT31;59251;51.326;12.370;2022-07-01T05:32:47;18.94;90.49
71436;SHT31;59251;51.326;12.370;2022-07-01T05:35:13;18.91;90.62
71436;SHT31;59251;51.326;12.370;2022-07-01T05:37:39;18.79;91.08
71436;SHT31;59251;51.326;12.370;2022-07-01T05:40:05;18.69;91.22
71436;SHT31;59251;51.326;12.370;2022-07-01T05:42:31;18.65;91.48
71436;SHT31;59251;51.326;12.370;2022-07-01T05:44:57;18.61;91.14
71436;SHT31;59251;51.326;12.370;2022-07-01T05:47:22;18.81;91.52
71436;SHT31;59251;51.326;12.370;2022-07-01T05:49:47;18.64;91.22
71436;SHT31;59251;51.326;12.370;2022-07-01T05:52:13;18.79;90.92
71436;SHT31;59251;51.326;12.370;2022-07-01T05:54:38;18.84;89.81
71436;SHT31;59251;51.326;12.370;2022-07-01T05:57:04;18.95;89.43
71436;SHT31;59251;51.326;12.370;2022-07-01T05:59:29;19.01;89.97
71436;SHT31;59251;51.326;12.370;2022-07-01T06:01:55;18.92;89.08
71436;SHT31;59251;51.326;12.370;2022-07-01T06:04:20;18.98;89.12
71436;SHT31;59251;51.326;12.370;2022-07-01T06:06:46;18.99;88.82
71436;SHT31;59251;51.326;12.370;2022-07-01T06:09:11;18.94;89.47
71436;SHT31;59251;51.326;12.370;2022-07-01T06:11:37;18.92;88.00
71436;SHT31;59251;51.326;12.370;2022-07-01T06:14:02;19.03;88.90
71436;SHT31;59251;51.326;12.370;2022-07-01T06:16:27;18.98;89.18
71436;SHT31;59251;51.326;12.370;2022-07-01T06:18:53;19.30;87.89
71436;SHT31;59251;51.326;12.370;2022-07-01T06:21:18;19.11;87.91
71436;SHT31;59251;51.326;12.370;2022-07-01T06:23:43;19.13;86.60
71436;SHT31;59251;51.326;12.370;2022-07-01T06:26:10;19.02;87.42
71436;SHT31;59251;51.326;12.370;2022-07-01T06:28:36;19.06;86.49
71436;SHT31;59251;51.326;12.370;2022-07-01T06:31:01;19.13;86.50
71436;SHT31;59251;51.326;12.370;2022-07-01T06:33:27;19.16;86.38
71436;SHT31;59251;51.326;12.370;2022-07-01T06:35:55;19.24;86.58
71436;SHT31;59251;51.326;12.370;2022-07-01T06:38:20;19.15;84.47
71436;SHT31;59251;51.326;12.370;2022-07-01T06:40:46;19.22;85.17
71436;SHT31;59251;51.326;12.370;2022-07-01T06:43:31;19.11;83.77
71436;SHT31;59251;51.326;12.370;2022-07-01T06:45:56;18.96;83.70
71436;SHT31;59251;51.326;12.370;2022-07-01T06:48:22;18.94;83.36
71436;SHT31;59251;51.326;12.370;2022-07-01T06:50:47;18.85;83.20
71436;SHT31;59251;51.326;12.370;2022-07-01T06:53:13;18.89;83.70
71436;SHT31;59251;51.326;12.370;2022-07-01T06:55:38;18.61;84.05
71436;SHT31;59251;51.326;12.370;2022-07-01T06:58:03;18.65;83.82
71436;SHT31;59251;51.326;12.370;2022-07-01T07:00:29;18.87;82.88
71436;SHT31;59251;51.326;12.370;2022-07-01T07:02:54;18.98;82.35
71436;SHT31;59251;51.326;12.370;2022-07-01T07:05:20;18.84;83.03
71436;SHT31;59251;51.326;12.370;2022-07-01T07:07:45;18.57;83.44
71436;SHT31;59251;51.326;12.370;2022-07-01T07:10:11;18.75;82.87
71436;SHT31;59251;51.326;12.370;2022-07-01T07:12:36;18.65;82.94
71436;SHT31;59251;51.326;12.370;2022-07-01T07:15:01;18.75;82.58
71436;SHT31;59251;51.326;12.370;2022-07-01T07:17:27;18.63;82.95
71436;SHT31;59251;51.326;12.370;2022-07-01T07:19:52;18.96;82.90
71436;SHT31;59251;51.326;12.370;2022-07-01T07:22:20;18.95;82.70
71436;SHT31;59251;51.326;12.370;2022-07-01T07:24:45;18.91;82.37
71436;SHT31;59251;51.326;12.370;2022-07-01T07:27:11;18.83;82.25
71436;SHT31;59251;51.326;12.370;2022-07-01T07:29:36;18.68;82.77
71436;SHT31;59251;51.326;12.370;2022-07-01T07:32:02;18.74;82.62
71436;SHT31;59251;51.326;12.370;2022-07-01T07:34:27;18.43;82.78
71436;SHT31;59251;51.326;12.370;2022-07-01T07:36:53;18.25;83.22
71436;SHT31;59251;51.326;12.370;2022-07-01T07:39:18;18.56;82.72
71436;SHT31;59251;51.326;12.370;2022-07-01T07:41:44;18.58;82.23
71436;SHT31;59251;51.326;12.370;2022-07-01T07:44:09;18.68;82.26
71436;SHT31;59251;51.326;12.370;2022-07-01T07:46:34;18.58;82.13
71436;SHT31;59251;51.326;12.370;2022-07-01T07:49:00;18.44;82.43
71436;SHT31;59251;51.326;12.370;2022-07-01T07:51:25;18.23;83.35
71436;SHT31;59251;51.326;12.370;2022-07-01T07:53:51;17.85;84.39
71436;SHT31;59251;51.326;12.370;2022-07-01T07:56:17;17.92;85.68
71436;SHT31;59251;51.326;12.370;2022-07-01T07:58:42;18.10;85.44
71436;SHT31;59251;51.326;12.370;2022-07-01T08:01:09;17.58;87.57
71436;SHT31;59251;51.326;12.370;2022-07-01T08:03:34;17.55;89.09
71436;SHT31;59251;51.326;12.370;2022-07-01T08:05:59;17.72;87.77
71436;SHT31;59251;51.326;12.370;2022-07-01T08:08:25;17.72;87.36
71436;SHT31;59251;51.326;12.370;2022-07-01T08:10:52;17.65;88.09
71436;SHT31;59251;51.326;12.370;2022-07-01T08:13:18;17.23;89.96
71436;SHT31;59251;51.326;12.370;2022-07-01T08:15:43;17.04;90.58
71436;SHT31;59251;51.326;12.370;2022-07-01T08:18:09;17.04;91.02
71436;SHT31;59251;51.326;12.370;2022-07-01T08:20:34;17.12;90.83
71436;SHT31;59251;51.326;12.370;2022-07-01T08:23:00;17.35;89.43
71436;SHT31;59251;51.326;12.370;2022-07-01T08:25:25;17.37;90.04
71436;SHT31;59251;51.326;12.370;2022-07-01T08:27:51;17.31;90.78
71436;SHT31;59251;51.326;12.370;2022-07-01T08:30:16;17.26;89.87
71436;SHT31;59251;51.326;12.370;2022-07-01T08:32:42;17.24;90.17
71436;SHT31;59251;51.326;12.370;2022-07-01T08:35:08;17.35;88.08
71436;SHT31;59251;51.326;12.370;2022-07-01T08:37:33;17.37;88.52
71436;SHT31;59251;51.326;12.370;2022-07-01T08:39:58;17.30;88.56
71436;SHT31;59251;51.326;12.370;2022-07-01T08:42:24;17.17;89.19
71436;SHT31;59251;51.326;12.370;2022-07-01T08:44:50;16.92;90.95
71436;SHT31;59251;51.326;12.370;2022-07-01T08:47:15;16.97;91.96
71436;SHT31;59251;51.326;12.370;2022-07-01T08:49:41;16.72;92.48
71436;SHT31;59251;51.326;12.370;2022-07-01T08:52:07;16.66;91.41
71436;SHT31;59251;51.326;12.370;2022-07-01T08:54:35;16.77;90.76
71436;SHT31;59251;51.326;12.370;2022-07-01T08:57:03;16.87;90.64
71436;SHT31;59251;51.326;12.370;2022-07-01T08:59:29;16.84;91.35
71436;SHT31;59251;51.326;12.370;2022-07-01T09:01:59;16.61;92.00
71436;SHT31;59251;51.326;12.370;2022-07-01T09:04:25;16.59;91.99
71436;SHT31;59251;51.326;12.370;2022-07-01T09:06:51;16.76;90.61
71436;SHT31;59251;51.326;12.370;2022-07-01T09:09:19;16.83;91.76
71436;SHT31;59251;51.326;12.370;2022-07-01T09:11:54;16.84;93.15
71436;SHT31;59251;51.326;12.370;2022-07-01T09:14:22;16.64;93.76
71436;SHT31;59251;51.326;12.370;2022-07-01T09:16:53;16.49;93.04
71436;SHT31;59251;51.326;12.370;2022-07-01T09:19:24;16.64;95.69
71436;SHT31;59251;51.326;12.370;2022-07-01T09:21:54;16.52;93.81
71436;SHT31;59251;51.326;12.370;2022-07-01T09:27:02;16.58;94.35
71436;SHT31;59251;51.326;12.370;2022-07-01T09:29:31;16.54;93.58
71436;SHT31;59251;51.326;12.370;2022-07-01T09:31:58;16.42;95.48
71436;SHT31;59251;51.326;12.370;2022-07-01T09:34:24;16.40;95.79
71436;SHT31;59251;51.326;12.370;2022-07-01T09:36:56;16.11;95.30
71436;SHT31;59251;51.326;12.370;2022-07-01T09:39:23;16.16;95.83
71436;SHT31;59251;51.326;12.370;2022-07-01T09:41:49;16.24;96.42
71436;SHT31;59251;51.326;12.370;2022-07-01T09:44:14;16.25;96.56
71436;SHT31;59251;51.326;12.370;2022-07-01T09:46:54;16.11;94.91
71436;SHT31;59251;51.326;12.370;2022-07-01T09:49:19;16.21;94.49
71436;SHT31;59251;51.326;12.370;2022-07-01T09:51:45;16.24;94.46
71436;SHT31;59251;51.326;12.370;2022-07-01T09:54:12;16.27;93.42
71436;SHT31;59251;51.326;12.370;2022-07-01T09:56:38;16.22;93.42
71436;SHT31;59251;51.326;12.370;2022-07-01T09:59:03;16.27;93.39
71436;SHT31;59251;51.326;12.370;2022-07-01T10:01:31;16.31;93.91
71436;SHT31;59251;51.326;12.370;2022-07-01T10:03:58;16.22;93.53
71436;SHT31;59251;51.326;12.370;2022-07-01T10:09:17;16.04;94.56
71436;SHT31;59251;51.326;12.370;2022-07-01T10:11:57;16.13;93.24
71436;SHT31;59251;51.326;12.370;2022-07-01T10:14:27;16.22;94.61
71436;SHT31;59251;51.326;12.370;2022-07-01T10:16:54;16.13;93.47
71436;SHT31;59251;51.326;12.370;2022-07-01T10:19:30;16.28;93.67
71436;SHT31;59251;51.326;12.370;2022-07-01T10:22:00;16.11;93.91
71436;SHT31;59251;51.326;12.370;2022-07-01T10:24:26;16.31;93.68
71436;SHT31;59251;51.326;12.370;2022-07-01T10:26:58;16.36;93.67
71436;SHT31;59251;51.326;12.370;2022-07-01T10:29:35;16.32;94.05
71436;SHT31;59251;51.326;12.370;2022-07-01T10:34:35;16.25;93.14
71436;SHT31;59251;51.326;12.370;2022-07-01T10:37:03;16.49;92.79
71436;SHT31;59251;51.326;12.370;2022-07-01T10:39:29;16.38;93.02
71436;SHT31;59251;51.326;12.370;2022-07-01T10:41:59;16.18;92.54
71436;SHT31;59251;51.326;12.370;2022-07-01T10:44:27;16.32;92.98
71436;SHT31;59251;51.326;12.370;2022-07-01T10:47:02;16.45;92.73
71436;SHT31;59251;51.326;12.370;2022-07-01T10:51:59;16.49;92.25
71436;SHT31;59251;51.326;12.370;2022-07-01T10:54:52;16.68;91.66
71436;SHT31;59251;51.326;12.370;2022-07-01T10:57:19;16.65;91.01
71436;SHT31;59251;51.326;12.370;2022-07-01T10:59:49;16.54;91.76
71436;SHT31;59251;51.326;12.370;2022-07-01T11:02:18;16.62;93.41
71436;SHT31;59251;51.326;12.370;2022-07-01T11:04:44;17.02;92.11
71436;SHT31;59251;51.326;12.370;2022-07-01T11:07:10;17.06;91.46
71436;SHT31;59251;51.326;12.370;2022-07-01T11:09:35;17.10;91.12
71436;SHT31;59251;51.326;12.370;2022-07-01T11:12:02;16.93;91.20
71436;SHT31;59251;51.326;12.370;2022-07-01T11:14:28;16.83;90.78
71436;SHT31;59251;51.326;12.370;2022-07-01T11:16:54;16.72;90.81
71436;SHT31;59251;51.326;12.370;2022-07-01T11:19:20;16.62;91.21
71436;SHT31;59251;51.326;12.370;2022-07-01T11:21:50;16.71;91.10
71436;SHT31;59251;51.326;12.370;2022-07-01T11:24:19;16.54;90.07
71436;SHT31;59251;51.326;12.370;2022-07-01T11:26:45;16.51;91.63
71436;SHT31;59251;51.326;12.370;2022-07-01T11:29:11;16.36;91.95
71436;SHT31;59251;51.326;12.370;2022-07-01T11:31:37;16.73;91.44
71436;SHT31;59251;51.326;12.370;2022-07-01T11:34:03;16.76;89.70
71436;SHT31;59251;51.326;12.370;2022-07-01T11:36:29;16.72;90.54
71436;SHT31;59251;51.326;12.370;2022-07-01T11:39:13;16.48;91.40
71436;SHT31;59251;51.326;12.370;2022-07-01T11:41:51;16.45;91.92
71436;SHT31;59251;51.326;12.370;2022-07-01T11:44:28;16.65;90.75
71436;SHT31;59251;51.326;12.370;2022-07-01T11:46:53;16.65;90.77
71436;SHT31;59251;51.326;12.370;2022-07-01T11:49:19;16.73;90.30
71436;SHT31;59251;51.326;12.370;2022-07-01T11:52:00;16.89;89.81
71436;SHT31;59251;51.326;12.370;2022-07-01T11:54:26;16.76;90.10
71436;SHT31;59251;51.326;12.370;2022-07-01T11:56:52;16.69;89.59
71436;SHT31;59251;51.326;12.370;2022-07-01T11:59:19;16.83;89.28
71436;SHT31;59251;51.326;12.370;2022-07-01T12:01:54;16.87;88.81
71436;SHT31;59251;51.326;12.370;2022-07-01T12:04:20;16.90;89.22
71436;SHT31;59251;51.326;12.370;2022-07-01T12:06:46;16.62;90.06
71436;SHT31;59251;51.326;12.370;2022-07-01T12:09:14;16.64;89.39
71436;SHT31;59251;51.326;12.370;2022-07-01T12:11:44;16.65;90.25
71436;SHT31;59251;51.326;12.370;2022-07-01T12:14:09;16.48;91.09
71436;SHT31;59251;51.326;12.370;2022-07-01T12:16:41;16.49;91.68
71436;SHT31;59251;51.326;12.370;2022-07-01T12:19:07;16.59;91.91
71436;SHT31;59251;51.326;12.370;2022-07-01T12:21:53;16.73;91.47
71436;SHT31;59251;51.326;12.370;2022-07-01T12:24:20;16.48;91.45
71436;SHT31;59251;51.326;12.370;2022-07-01T12:29:24;16.73;91.58
71436;SHT31;59251;51.326;12.370;2022-07-01T12:32:02;16.94;90.34
71436;SHT31;59251;51.326;12.370;2022-07-01T12:34:50;16.96;89.60
71436;SHT31;59251;51.326;12.370;2022-07-01T12:37:20;17.13;88.33
71436;SHT31;59251;51.326;12.370;2022-07-01T12:39:47;17.32;87.68
71436;SHT31;59251;51.326;12.370;2022-07-01T12:44:53;17.42;87.05
71436;SHT31;59251;51.326;12.370;2022-07-01T12:47:29;17.47;87.60
71436;SHT31;59251;51.326;12.370;2022-07-01T12:50:30;17.10;88.26
71436;SHT31;59251;51.326;12.370;2022-07-01T12:55:23;17.27;88.10
71436;SHT31;59251;51.326;12.370;2022-07-01T12:57:51;17.12;88.44
71436;SHT31;59251;51.326;12.370;2022-07-01T13:00:18;17.23;87.81
71436;SHT31;59251;51.326;12.370;2022-07-01T13:02:44;17.16;87.65
71436;SHT31;59251;51.326;12.370;2022-07-01T13:05:10;17.06;87.11
71436;SHT31;59251;51.326;12.370;2022-07-01T13:07:36;16.92;87.33
71436;SHT31;59251;51.326;12.370;2022-07-01T13:10:01;16.83;87.70
71436;SHT31;59251;51.326;12.370;2022-07-01T13:12:27;16.72;86.79
71436;SHT31;59251;51.326;12.370;2022-07-01T13:14:52;16.72;86.75
71436;SHT31;59251;51.326;12.370;2022-07-01T13:17:17;16.76;88.25
71436;SHT31;59251;51.326;12.370;2022-07-01T13:19:43;17.07;86.61
71436;SHT31;59251;51.326;12.370;2022-07-01T13:22:08;16.96;86.75
71436;SHT31;59251;51.326;12.370;2022-07-01T13:24:34;16.92;86.69
71436;SHT31;59251;51.326;12.370;2022-07-01T13:26:59;17.02;86.94
71436;SHT31;59251;51.326;12.370;2022-07-01T13:29:25;16.66;88.49
71436;SHT31;59251;51.326;12.370;2022-07-01T13:31:50;16.93;87.71
71436;SHT31;59251;51.326;12.370;2022-07-01T13:34:16;17.04;86.94
71436;SHT31;59251;51.326;12.370;2022-07-01T13:36:41;17.20;86.05
71436;SHT31;59251;51.326;12.370;2022-07-01T13:39:06;16.92;87.39
71436;SHT31;59251;51.326;12.370;2022-07-01T13:41:33;16.99;86.91
71436;SHT31;59251;51.326;12.370;2022-07-01T13:43:58;16.97;86.85
71436;SHT31;59251;51.326;12.370;2022-07-01T13:46:24;17.07;86.94
71436;SHT31;59251;51.326;12.370;2022-07-01T13:48:49;17.06;87.10
71436;SHT31;59251;51.326;12.370;2022-07-01T13:51:15;17.09;86.67
71436;SHT31;59251;51.326;12.370;2022-07-01T13:53:40;17.10;86.65
71436;SHT31;59251;51.326;12.370;2022-07-01T13:56:05;17.21;85.81
71436;SHT31;59251;51.326;12.370;2022-07-01T13:58:31;17.38;84.87
71436;SHT31;59251;51.326;12.370;2022-07-01T14:00:56;17.16;85.40
71436;SHT31;59251;51.326;12.370;2022-07-01T14:03:22;17.20;85.71
71436;SHT31;59251;51.326;12.370;2022-07-01T14:08:13;17.03;85.80
71436;SHT31;59251;51.326;12.370;2022-07-01T14:10:41;17.19;86.14
71436;SHT31;59251;51.326;12.370;2022-07-01T14:13:06;17.17;85.15
71436;SHT31;59251;51.326;12.370;2022-07-01T14:15:32;17.14;85.09
71436;SHT31;59251;51.326;12.370;2022-07-01T14:17:57;17.16;85.24
71436;SHT31;59251;51.326;12.370;2022-07-01T14:20:22;16.84;86.29
71436;SHT31;59251;51.326;12.370;2022-07-01T14:22:48;17.06;86.17
71436;SHT31;59251;51.326;12.370;2022-07-01T14:25:13;17.32;84.67
71436;SHT31;59251;51.326;12.370;2022-07-01T14:27:39;17.41;84.30
71436;SHT31;59251;51.326;12.370;2022-07-01T14:30:05;17.42;83.78
71436;SHT31;59251;51.326;12.370;2022-07-01T14:32:35;17.28;84.68
71436;SHT31;59251;51.326;12.370;2022-07-01T14:35:00;17.32;83.71
71436;SHT31;59251;51.326;12.370;2022-07-01T14:37:27;17.34;83.06
71436;SHT31;59251;51.326;12.370;2022-07-01T14:39:53;17.54;82.73
71436;SHT31;59251;51.326;12.370;2022-07-01T14:42:23;17.52;82.62
71436;SHT31;59251;51.326;12.370;2022-07-01T14:44:48;17.37;83.45
71436;SHT31;59251;51.326;12.370;2022-07-01T14:47:15;17.54;82.64
71436;SHT31;59251;51.326;12.370;2022-07-01T14:49:41;17.31;83.35
71436;SHT31;59251;51.326;12.370;2022-07-01T14:52:07;16.99;84.84
71436;SHT31;59251;51.326;12.370;2022-07-01T14:54:32;17.37;83.77
71436;SHT31;59251;51.326;12.370;2022-07-01T14:56:58;17.51;81.78
71436;SHT31;59251;51.326;12.370;2022-07-01T14:59:23;17.48;82.13
71436;SHT31;59251;51.326;12.370;2022-07-01T15:01:49;17.30;82.85
71436;SHT31;59251;51.326;12.370;2022-07-01T15:04:14;17.51;81.57
71436;SHT31;59251;51.326;12.370;2022-07-01T15:06:40;17.64;80.99
71436;SHT31;59251;51.326;12.370;2022-07-01T15:09:05;17.77;81.20
71436;SHT31;59251;51.326;12.370;2022-07-01T15:11:30;17.68;82.29
71436;SHT31;59251;51.326;12.370;2022-07-01T15:13:58;17.68;81.23
71436;SHT31;59251;51.326;12.370;2022-07-01T15:16:24;18.13;80.49
71436;SHT31;59251;51.326;12.370;2022-07-01T15:18:51;18.14;80.20
71436;SHT31;59251;51.326;12.370;2022-07-01T15:21:17;18.06;80.97
71436;SHT31;59251;51.326;12.370;2022-07-01T15:23:42;18.09;80.95
71436;SHT31;59251;51.326;12.370;2022-07-01T15:26:07;18.12;79.72
71436;SHT31;59251;51.326;12.370;2022-07-01T15:28:33;18.09;80.09
71436;SHT31;59251;51.326;12.370;2022-07-01T15:30:58;17.64;81.26
71436;SHT31;59251;51.326;12.370;2022-07-01T15:33:24;17.82;80.78